Terminal Aerodrome Forecast
Issued by NWS

Home | Current Version | Previous Version | Text Only | Print | Product List | Glossary On
Versions: 1 2 3 4 5 6 7 8 9 10 11 12 13 14 15 16 17 18 19 20 21 22 23
000
FTUS44 KMAF 040500
TAFPEQ
TAF
KPEQ 040520Z 0406/0506 VRB04KT P6SM OVC100
      TEMPO 0406/0410 -SHRA
     FM041700 03015G25KT P6SM OVC015
     FM042000 05014G22KT 4SM -RA BR OVC010
     FM050000 05012G18KT 3SM -FZRA BR OVC008
     FM050200 04012G18KT 2SM -SN BR OVC006=

USA.gov is the U.S. government's official web portal to all federal, state and local government web resources and services.